sensor_id;sensor_type;location;lat;lon;timestamp;temperature;humidity
20524;DHT22;10420;48.542;12.270;2023-03-14T00:03:28;9.90;99.90
20524;DHT22;10420;48.542;12.270;2023-03-14T00:08:29;9.60;99.90
20524;DHT22;10420;48.542;12.270;2023-03-14T00:13:30;9.10;99.90
20524;DHT22;10420;48.542;12.270;2023-03-14T00:18:31;9.00;99.90
20524;DHT22;10420;48.542;12.270;2023-03-14T00:23:34;8.80;99.90
20524;DHT22;10420;48.542;12.270;2023-03-14T00:28:36;8.80;99.90
20524;DHT22;10420;48.542;12.270;2023-03-14T00:33:37;8.60;99.90
20524;DHT22;10420;48.542;12.270;2023-03-14T00:38:38;8.40;99.90
20524;DHT22;10420;48.542;12.270;2023-03-14T00:43:39;8.30;99.90
20524;DHT22;10420;48.542;12.270;2023-03-14T00:48:40;8.20;99.90
20524;DHT22;10420;48.542;12.270;2023-03-14T00:53:42;8.10;99.90
20524;DHT22;10420;48.542;12.270;2023-03-14T00:58:43;8.20;99.90
20524;DHT22;10420;48.542;12.270;2023-03-14T01:03:44;8.30;99.90
20524;DHT22;10420;48.542;12.270;2023-03-14T01:08:45;8.30;99.90
20524;DHT22;10420;48.542;12.270;2023-03-14T01:13:46;8.20;99.90
20524;DHT22;10420;48.542;12.270;2023-03-14T01:18:48;8.10;99.90
20524;DHT22;10420;48.542;12.270;2023-03-14T01:23:50;8.20;99.90
20524;DHT22;10420;48.542;12.270;2023-03-14T01:28:53;8.30;99.90
20524;DHT22;10420;48.542;12.270;2023-03-14T01:33:54;8.40;99.90
20524;DHT22;10420;48.542;12.270;2023-03-14T01:38:54;8.60;99.90
20524;DHT22;10420;48.542;12.270;2023-03-14T01:43:55;8.60;99.90
20524;DHT22;10420;48.542;12.270;2023-03-14T01:49:24;8.90;99.90
20524;DHT22;10420;48.542;12.270;2023-03-14T01:54:39;9.30;99.90
20524;DHT22;10420;48.542;12.270;2023-03-14T01:59:44;9.30;99.90
20524;DHT22;10420;48.542;12.270;2023-03-14T02:04:46;9.40;99.90
20524;DHT22;10420;48.542;12.270;2023-03-14T02:09:48;9.30;99.90
20524;DHT22;10420;48.542;12.270;2023-03-14T02:14:49;9.30;99.90
20524;DHT22;10420;48.542;12.270;2023-03-14T02:19:58;9.30;99.90
20524;DHT22;10420;48.542;12.270;2023-03-14T02:25:28;9.40;99.90
20524;DHT22;10420;48.542;12.270;2023-03-14T02:30:32;9.40;99.90
20524;DHT22;10420;48.542;12.270;2023-03-14T02:35:44;9.30;99.90
20524;DHT22;10420;48.542;12.270;2023-03-14T02:40:45;9.20;99.90
20524;DHT22;10420;48.542;12.270;2023-03-14T02:45:51;9.20;99.90
20524;DHT22;10420;48.542;12.270;2023-03-14T02:50:54;9.10;99.90
20524;DHT22;10420;48.542;12.270;2023-03-14T02:55:55;9.10;99.90
20524;DHT22;10420;48.542;12.270;2023-03-14T03:00:56;9.00;99.90
20524;DHT22;10420;48.542;12.270;2023-03-14T03:05:57;9.00;99.90
20524;DHT22;10420;48.542;12.270;2023-03-14T03:10:58;8.90;99.90
20524;DHT22;10420;48.542;12.270;2023-03-14T03:15:59;8.90;99.90
20524;DHT22;10420;48.542;12.270;2023-03-14T03:21:04;8.80;99.90
20524;DHT22;10420;48.542;12.270;2023-03-14T03:26:05;8.70;99.90
20524;DHT22;10420;48.542;12.270;2023-03-14T03:31:10;8.70;99.90
20524;DHT22;10420;48.542;12.270;2023-03-14T03:36:11;8.60;99.90
20524;DHT22;10420;48.542;12.270;2023-03-14T03:41:12;8.60;99.90
20524;DHT22;10420;48.542;12.270;2023-03-14T03:46:13;8.60;99.90
20524;DHT22;10420;48.542;12.270;2023-03-14T03:51:15;8.60;99.90
20524;DHT22;10420;48.542;12.270;2023-03-14T03:56:16;8.50;99.90
20524;DHT22;10420;48.542;12.270;2023-03-14T04:01:17;8.50;99.90
20524;DHT22;10420;48.542;12.270;2023-03-14T04:06:17;8.50;99.90
20524;DHT22;10420;48.542;12.270;2023-03-14T04:11:18;8.60;99.90
20524;DHT22;10420;48.542;12.270;2023-03-14T04:16:23;8.60;99.90
20524;DHT22;10420;48.542;12.270;2023-03-14T04:21:24;8.60;99.90
20524;DHT22;10420;48.542;12.270;2023-03-14T04:26:25;8.60;99.90
20524;DHT22;10420;48.542;12.270;2023-03-14T04:31:26;8.50;99.90
20524;DHT22;10420;48.542;12.270;2023-03-14T04:36:26;8.50;99.90
20524;DHT22;10420;48.542;12.270;2023-03-14T04:41:27;8.50;99.90
20524;DHT22;10420;48.542;12.270;2023-03-14T04:46:27;8.50;99.90
20524;DHT22;10420;48.542;12.270;2023-03-14T04:51:28;8.50;99.90
20524;DHT22;10420;48.542;12.270;2023-03-14T04:56:29;8.60;99.90
20524;DHT22;10420;48.542;12.270;2023-03-14T05:01:29;8.60;99.90
20524;DHT22;10420;48.542;12.270;2023-03-14T05:06:30;8.60;99.90
20524;DHT22;10420;48.542;12.270;2023-03-14T05:11:30;8.60;99.90
20524;DHT22;10420;48.542;12.270;2023-03-14T05:16:32;8.50;99.90
20524;DHT22;10420;48.542;12.270;2023-03-14T05:21:33;8.50;99.90
20524;DHT22;10420;48.542;12.270;2023-03-14T05:26:34;8.40;99.90
20524;DHT22;10420;48.542;12.270;2023-03-14T05:31:34;8.40;99.90
20524;DHT22;10420;48.542;12.270;2023-03-14T05:36:35;8.40;99.90
20524;DHT22;10420;48.542;12.270;2023-03-14T05:41:35;8.50;99.90
20524;DHT22;10420;48.542;12.270;2023-03-14T05:46:36;8.30;99.90
20524;DHT22;10420;48.542;12.270;2023-03-14T05:51:37;8.30;99.90
20524;DHT22;10420;48.542;12.270;2023-03-14T05:56:37;8.30;99.90
20524;DHT22;10420;48.542;12.270;2023-03-14T06:01:38;8.20;99.90
20524;DHT22;10420;48.542;12.270;2023-03-14T06:06:39;8.10;99.90
20524;DHT22;10420;48.542;12.270;2023-03-14T06:11:39;8.10;99.90
20524;DHT22;10420;48.542;12.270;2023-03-14T06:16:40;8.00;99.90
20524;DHT22;10420;48.542;12.270;2023-03-14T06:21:41;8.10;99.90
20524;DHT22;10420;48.542;12.270;2023-03-14T06:26:47;8.10;99.90
20524;DHT22;10420;48.542;12.270;2023-03-14T06:31:51;8.10;99.90
20524;DHT22;10420;48.542;12.270;2023-03-14T06:36:52;8.10;99.90
20524;DHT22;10420;48.542;12.270;2023-03-14T06:41:52;8.20;99.90
20524;DHT22;10420;48.542;12.270;2023-03-14T06:46:53;8.20;99.90
20524;DHT22;10420;48.542;12.270;2023-03-14T06:51:54;8.10;99.90
20524;DHT22;10420;48.542;12.270;2023-03-14T06:56:54;8.30;99.90
20524;DHT22;10420;48.542;12.270;2023-03-14T07:01:55;8.40;99.90
20524;DHT22;10420;48.542;12.270;2023-03-14T07:06:55;8.60;99.90
20524;DHT22;10420;48.542;12.270;2023-03-14T07:11:56;8.60;99.90
20524;DHT22;10420;48.542;12.270;2023-03-14T07:16:57;8.70;99.90
20524;DHT22;10420;48.542;12.270;2023-03-14T07:21:57;8.90;99.90
20524;DHT22;10420;48.542;12.270;2023-03-14T07:26:58;9.20;99.90
20524;DHT22;10420;48.542;12.270;2023-03-14T07:31:59;9.50;99.90
20524;DHT22;10420;48.542;12.270;2023-03-14T07:36:59;9.50;99.90
20524;DHT22;10420;48.542;12.270;2023-03-14T07:42:00;9.40;99.90
20524;DHT22;10420;48.542;12.270;2023-03-14T07:47:01;9.30;99.90
20524;DHT22;10420;48.542;12.270;2023-03-14T07:52:01;9.30;99.90
20524;DHT22;10420;48.542;12.270;2023-03-14T07:57:02;9.20;99.90
20524;DHT22;10420;48.542;12.270;2023-03-14T08:02:04;9.20;99.90
20524;DHT22;10420;48.542;12.270;2023-03-14T08:07:09;9.20;99.90
20524;DHT22;10420;48.542;12.270;2023-03-14T08:12:10;9.30;99.90
20524;DHT22;10420;48.542;12.270;2023-03-14T08:17:11;9.30;99.90
20524;DHT22;10420;48.542;12.270;2023-03-14T08:22:11;9.40;99.90
20524;DHT22;10420;48.542;12.270;2023-03-14T08:27:12;9.50;99.90
20524;DHT22;10420;48.542;12.270;2023-03-14T08:32:14;9.70;99.90
20524;DHT22;10420;48.542;12.270;2023-03-14T08:37:15;9.90;99.90
20524;DHT22;10420;48.542;12.270;2023-03-14T08:42:16;10.10;99.90
20524;DHT22;10420;48.542;12.270;2023-03-14T08:47:16;10.30;99.90
20524;DHT22;10420;48.542;12.270;2023-03-14T08:52:17;10.60;99.90
20524;DHT22;10420;48.542;12.270;2023-03-14T08:57:17;10.60;99.90
20524;DHT22;10420;48.542;12.270;2023-03-14T09:02:18;10.60;99.90
20524;DHT22;10420;48.542;12.270;2023-03-14T09:07:19;10.60;99.90
20524;DHT22;10420;48.542;12.270;2023-03-14T09:12:20;10.80;99.90
20524;DHT22;10420;48.542;12.270;2023-03-14T09:17:20;10.80;99.90
20524;DHT22;10420;48.542;12.270;2023-03-14T09:22:21;10.90;99.90
20524;DHT22;10420;48.542;12.270;2023-03-14T09:27:22;11.10;99.90
20524;DHT22;10420;48.542;12.270;2023-03-14T09:32:23;11.20;99.90
20524;DHT22;10420;48.542;12.270;2023-03-14T09:37:23;11.20;99.90
20524;DHT22;10420;48.542;12.270;2023-03-14T09:42:26;11.20;99.90
20524;DHT22;10420;48.542;12.270;2023-03-14T09:47:28;11.20;99.90
20524;DHT22;10420;48.542;12.270;2023-03-14T09:52:33;11.10;99.90
20524;DHT22;10420;48.542;12.270;2023-03-14T09:57:35;11.40;99.90
20524;DHT22;10420;48.542;12.270;2023-03-14T10:02:36;11.10;99.90
20524;DHT22;10420;48.542;12.270;2023-03-14T10:07:37;11.20;99.90
20524;DHT22;10420;48.542;12.270;2023-03-14T10:12:38;11.50;99.90
20524;DHT22;10420;48.542;12.270;2023-03-14T10:17:46;11.40;99.90
20524;DHT22;10420;48.542;12.270;2023-03-14T10:22:50;11.60;99.90
20524;DHT22;10420;48.542;12.270;2023-03-14T10:27:51;11.60;99.90
20524;DHT22;10420;48.542;12.270;2023-03-14T10:32:52;11.70;99.90
20524;DHT22;10420;48.542;12.270;2023-03-14T10:38:01;11.70;99.90
20524;DHT22;10420;48.542;12.270;2023-03-14T10:43:05;11.60;99.90
20524;DHT22;10420;48.542;12.270;2023-03-14T10:53:21;11.70;99.90
20524;DHT22;10420;48.542;12.270;2023-03-14T10:58:27;11.50;99.90
20524;DHT22;10420;48.542;12.270;2023-03-14T11:03:31;11.60;99.90
20524;DHT22;10420;48.542;12.270;2023-03-14T11:34:59;12.90;99.90
20524;DHT22;10420;48.542;12.270;2023-03-14T11:40:21;12.60;99.90
20524;DHT22;10420;48.542;12.270;2023-03-14T11:45:28;12.10;99.90
20524;DHT22;10420;48.542;12.270;2023-03-14T11:50:31;11.90;99.90
20524;DHT22;10420;48.542;12.270;2023-03-14T11:55:38;11.80;99.90
20524;DHT22;10420;48.542;12.270;2023-03-14T12:00:41;11.90;99.90
20524;DHT22;10420;48.542;12.270;2023-03-14T12:06:06;11.70;99.90
20524;DHT22;10420;48.542;12.270;2023-03-14T12:11:16;11.40;99.90
20524;DHT22;10420;48.542;12.270;2023-03-14T12:21:44;11.40;99.90
20524;DHT22;10420;48.542;12.270;2023-03-14T12:26:53;11.40;99.90
20524;DHT22;10420;48.542;12.270;2023-03-14T12:37:23;11.50;99.90
20524;DHT22;10420;48.542;12.270;2023-03-14T12:57:57;11.40;99.90
20524;DHT22;10420;48.542;12.270;2023-03-14T13:04:04;11.50;99.90
20524;DHT22;10420;48.542;12.270;2023-03-14T13:08:39;11.80;99.90
20524;DHT22;10420;48.542;12.270;2023-03-14T13:13:47;11.70;99.90
20524;DHT22;10420;48.542;12.270;2023-03-14T13:18:51;11.60;99.90
20524;DHT22;10420;48.542;12.270;2023-03-14T13:24:02;11.80;99.90
20524;DHT22;10420;48.542;12.270;2023-03-14T13:29:16;11.70;99.90
20524;DHT22;10420;48.542;12.270;2023-03-14T13:34:17;11.60;99.90
20524;DHT22;10420;48.542;12.270;2023-03-14T13:39:19;11.50;99.90
20524;DHT22;10420;48.542;12.270;2023-03-14T13:44:32;11.50;99.90
20524;DHT22;10420;48.542;12.270;2023-03-14T13:49:37;11.80;99.90
20524;DHT22;10420;48.542;12.270;2023-03-14T13:54:38;12.00;99.90
20524;DHT22;10420;48.542;12.270;2023-03-14T13:59:39;11.90;99.90
20524;DHT22;10420;48.542;12.270;2023-03-14T14:04:40;11.80;99.90
20524;DHT22;10420;48.542;12.270;2023-03-14T14:09:43;11.60;99.90
20524;DHT22;10420;48.542;12.270;2023-03-14T14:15:00;11.50;99.90
20524;DHT22;10420;48.542;12.270;2023-03-14T14:20:04;11.50;99.90
20524;DHT22;10420;48.542;12.270;2023-03-14T14:25:12;11.40;99.90
20524;DHT22;10420;48.542;12.270;2023-03-14T14:35:23;11.50;99.90
20524;DHT22;10420;48.542;12.270;2023-03-14T14:40:27;11.40;99.90
20524;DHT22;10420;48.542;12.270;2023-03-14T14:45:28;10.90;99.90
20524;DHT22;10420;48.542;12.270;2023-03-14T14:50:34;10.20;99.90
20524;DHT22;10420;48.542;12.270;2023-03-14T14:55:39;9.90;99.90
20524;DHT22;10420;48.542;12.270;2023-03-14T15:00:41;9.70;99.90
20524;DHT22;10420;48.542;12.270;2023-03-14T15:05:42;9.60;99.90
20524;DHT22;10420;48.542;12.270;2023-03-14T15:10:43;9.50;99.90
20524;DHT22;10420;48.542;12.270;2023-03-14T15:15:44;9.60;99.90
20524;DHT22;10420;48.542;12.270;2023-03-14T15:20:46;9.40;99.90
20524;DHT22;10420;48.542;12.270;2023-03-14T15:25:47;9.20;99.90
20524;DHT22;10420;48.542;12.270;2023-03-14T15:30:54;8.90;99.90
20524;DHT22;10420;48.542;12.270;2023-03-14T15:35:55;8.50;99.90
20524;DHT22;10420;48.542;12.270;2023-03-14T15:40:57;8.60;99.90
20524;DHT22;10420;48.542;12.270;2023-03-14T15:45:58;8.50;99.90
20524;DHT22;10420;48.542;12.270;2023-03-14T15:50:58;8.60;99.90
20524;DHT22;10420;48.542;12.270;2023-03-14T15:55:59;8.60;99.90
20524;DHT22;10420;48.542;12.270;2023-03-14T16:01:01;8.60;99.90
20524;DHT22;10420;48.542;12.270;2023-03-14T16:06:02;8.50;99.90
20524;DHT22;10420;48.542;12.270;2023-03-14T16:11:03;8.50;99.90
20524;DHT22;10420;48.542;12.270;2023-03-14T16:16:04;8.60;99.90
20524;DHT22;10420;48.542;12.270;2023-03-14T16:21:09;8.60;99.90
20524;DHT22;10420;48.542;12.270;2023-03-14T16:26:13;8.50;99.90
20524;DHT22;10420;48.542;12.270;2023-03-14T16:31:17;8.40;99.90
20524;DHT22;10420;48.542;12.270;2023-03-14T16:36:18;8.40;99.90
20524;DHT22;10420;48.542;12.270;2023-03-14T16:41:19;8.20;99.90
20524;DHT22;10420;48.542;12.270;2023-03-14T16:46:20;8.20;99.90
20524;DHT22;10420;48.542;12.270;2023-03-14T16:51:22;8.10;99.90
20524;DHT22;10420;48.542;12.270;2023-03-14T16:56:23;7.90;99.90
20524;DHT22;10420;48.542;12.270;2023-03-14T17:01:24;7.70;99.90
20524;DHT22;10420;48.542;12.270;2023-03-14T17:06:26;7.70;99.90
20524;DHT22;10420;48.542;12.270;2023-03-14T17:11:27;7.60;99.90
20524;DHT22;10420;48.542;12.270;2023-03-14T17:16:28;7.50;99.90
20524;DHT22;10420;48.542;12.270;2023-03-14T17:21:29;7.30;99.90
20524;DHT22;10420;48.542;12.270;2023-03-14T17:26:30;7.10;99.90
20524;DHT22;10420;48.542;12.270;2023-03-14T17:31:30;7.10;99.90
20524;DHT22;10420;48.542;12.270;2023-03-14T17:36:31;7.10;99.90
20524;DHT22;10420;48.542;12.270;2023-03-14T17:41:32;7.00;99.90
20524;DHT22;10420;48.542;12.270;2023-03-14T17:46:32;6.90;99.90
20524;DHT22;10420;48.542;12.270;2023-03-14T17:51:33;6.90;99.90
20524;DHT22;10420;48.542;12.270;2023-03-14T17:56:34;6.90;99.90
20524;DHT22;10420;48.542;12.270;2023-03-14T18:01:35;6.80;99.90
20524;DHT22;10420;48.542;12.270;2023-03-14T18:06:36;6.70;99.90
20524;DHT22;10420;48.542;12.270;2023-03-14T18:11:36;6.70;99.90
20524;DHT22;10420;48.542;12.270;2023-03-14T18:16:38;6.60;99.90
20524;DHT22;10420;48.542;12.270;2023-03-14T18:21:39;6.40;99.90
20524;DHT22;10420;48.542;12.270;2023-03-14T18:26:40;6.30;99.90
20524;DHT22;10420;48.542;12.270;2023-03-14T18:31:41;6.30;99.90
20524;DHT22;10420;48.542;12.270;2023-03-14T18:36:42;6.20;99.90
20524;DHT22;10420;48.542;12.270;2023-03-14T18:41:43;6.20;99.90
20524;DHT22;10420;48.542;12.270;2023-03-14T18:46:43;6.00;99.90
20524;DHT22;10420;48.542;12.270;2023-03-14T18:51:44;6.00;99.90
20524;DHT22;10420;48.542;12.270;2023-03-14T18:56:45;5.90;99.90
20524;DHT22;10420;48.542;12.270;2023-03-14T19:01:45;5.90;99.90
20524;DHT22;10420;48.542;12.270;2023-03-14T19:06:46;5.80;99.90
20524;DHT22;10420;48.542;12.270;2023-03-14T19:11:47;5.60;99.90
20524;DHT22;10420;48.542;12.270;2023-03-14T19:16:47;5.50;99.90
20524;DHT22;10420;48.542;12.270;2023-03-14T19:21:48;5.20;99.90
20524;DHT22;10420;48.542;12.270;2023-03-14T19:26:48;5.20;99.90
20524;DHT22;10420;48.542;12.270;2023-03-14T19:31:49;5.20;99.90
20524;DHT22;10420;48.542;12.270;2023-03-14T19:36:50;5.20;99.90
20524;DHT22;10420;48.542;12.270;2023-03-14T19:41:51;5.00;99.90
20524;DHT22;10420;48.542;12.270;2023-03-14T19:46:56;4.90;99.90
20524;DHT22;10420;48.542;12.270;2023-03-14T19:51:57;4.80;99.90
20524;DHT22;10420;48.542;12.270;2023-03-14T19:57:00;4.70;99.90
20524;DHT22;10420;48.542;12.270;2023-03-14T20:02:05;4.80;99.90
20524;DHT22;10420;48.542;12.270;2023-03-14T20:07:06;4.70;99.90
20524;DHT22;10420;48.542;12.270;2023-03-14T20:12:07;4.80;99.90
20524;DHT22;10420;48.542;12.270;2023-03-14T20:17:08;4.60;99.90
20524;DHT22;10420;48.542;12.270;2023-03-14T20:22:08;4.60;99.90
20524;DHT22;10420;48.542;12.270;2023-03-14T20:27:09;4.70;99.90
20524;DHT22;10420;48.542;12.270;2023-03-14T20:32:10;4.80;99.90
20524;DHT22;10420;48.542;12.270;2023-03-14T20:37:11;4.80;99.90
20524;DHT22;10420;48.542;12.270;2023-03-14T20:42:12;4.80;99.90
20524;DHT22;10420;48.542;12.270;2023-03-14T20:47:13;4.70;99.90
20524;DHT22;10420;48.542;12.270;2023-03-14T20:52:14;4.90;99.90
20524;DHT22;10420;48.542;12.270;2023-03-14T20:57:15;4.60;99.90
20524;DHT22;10420;48.542;12.270;2023-03-14T21:02:16;4.80;99.90
20524;DHT22;10420;48.542;12.270;2023-03-14T21:07:18;4.70;99.90
20524;DHT22;10420;48.542;12.270;2023-03-14T21:12:19;4.70;99.90
20524;DHT22;10420;48.542;12.270;2023-03-14T21:17:20;4.70;99.90
20524;DHT22;10420;48.542;12.270;2023-03-14T21:22:21;5.00;99.90
20524;DHT22;10420;48.542;12.270;2023-03-14T21:27:21;5.20;99.90
20524;DHT22;10420;48.542;12.270;2023-03-14T21:32:22;5.30;99.90
20524;DHT22;10420;48.542;12.270;2023-03-14T21:37:23;5.40;99.90
20524;DHT22;10420;48.542;12.270;2023-03-14T21:42:27;5.50;99.90
20524;DHT22;10420;48.542;12.270;2023-03-14T21:47:27;5.60;99.90
20524;DHT22;10420;48.542;12.270;2023-03-14T21:52:28;5.60;99.90
20524;DHT22;10420;48.542;12.270;2023-03-14T21:57:28;5.70;99.90
20524;DHT22;10420;48.542;12.270;2023-03-14T22:02:29;5.70;99.90
20524;DHT22;10420;48.542;12.270;2023-03-14T22:07:30;5.60;99.90
20524;DHT22;10420;48.542;12.270;2023-03-14T22:12:30;5.50;99.90
20524;DHT22;10420;48.542;12.270;2023-03-14T22:17:31;5.60;99.90
20524;DHT22;10420;48.542;12.270;2023-03-14T22:22:32;5.50;99.90
20524;DHT22;10420;48.542;12.270;2023-03-14T22:27:32;5.30;99.90
20524;DHT22;10420;48.542;12.270;2023-03-14T22:32:33;5.30;99.90
20524;DHT22;10420;48.542;12.270;2023-03-14T22:37:34;5.20;99.90
20524;DHT22;10420;48.542;12.270;2023-03-14T22:42:34;5.10;99.90
20524;DHT22;10420;48.542;12.270;2023-03-14T22:47:35;5.00;99.90
20524;DHT22;10420;48.542;12.270;2023-03-14T22:52:36;5.00;99.90
20524;DHT22;10420;48.542;12.270;2023-03-14T22:57:36;4.90;99.90
20524;DHT22;10420;48.542;12.270;2023-03-14T23:02:40;5.00;99.90
20524;DHT22;10420;48.542;12.270;2023-03-14T23:07:41;5.00;99.90
20524;DHT22;10420;48.542;12.270;2023-03-14T23:12:42;5.10;99.90
20524;DHT22;10420;48.542;12.270;2023-03-14T23:17:44;5.10;99.90
20524;DHT22;10420;48.542;12.270;2023-03-14T23:22:45;5.10;99.90
20524;DHT22;10420;48.542;12.270;2023-03-14T23:27:45;5.00;99.90
20524;DHT22;10420;48.542;12.270;2023-03-14T23:32:46;5.00;99.90
20524;DHT22;10420;48.542;12.270;2023-03-14T23:37:47;5.10;99.90
20524;DHT22;10420;48.542;12.270;2023-03-14T23:42:48;5.10;99.90
20524;DHT22;10420;48.542;12.270;2023-03-14T23:47:48;5.10;99.90
20524;DHT22;10420;48.542;12.270;2023-03-14T23:52:49;5.10;99.90
20524;DHT22;10420;48.542;12.270;2023-03-14T23:57:50;5.10;99.90
